createdAt,value
2022-10-05T00:01:50.090Z,101498.41
2022-10-05T00:04:53.849Z,101500.12
2022-10-05T00:07:57.165Z,101505.31
2022-10-05T00:11:00.515Z,101498.44
2022-10-05T00:14:07.919Z,101505.34
2022-10-05T00:17:14.078Z,101503.59
2022-10-05T00:20:19.374Z,101501.03
2022-10-05T00:23:25.170Z,101496.72
2022-10-05T00:26:31.988Z,101496.72
2022-10-05T00:29:34.785Z,101497.59
2022-10-05T00:32:37.044Z,101501.06
2022-10-05T00:35:40.079Z,101492.44
2022-10-05T00:38:43.135Z,101494.16
2022-10-05T00:41:45.672Z,101491.59
2022-10-05T00:44:47.975Z,101489.88
2022-10-05T00:47:57.390Z,101494.22
2022-10-05T00:51:07.685Z,101489.03
2022-10-05T00:54:19.792Z,101488.16
2022-10-05T00:57:22.199Z,101483.00
2022-10-05T01:00:27.253Z,101492.47
2022-10-05T01:03:38.302Z,101491.63
2022-10-05T01:06:59.070Z,101492.50
2022-10-05T01:10:11.624Z,101488.16
2022-10-05T01:13:20.845Z,101502.81
2022-10-05T01:16:29.420Z,101508.00
2022-10-05T01:19:44.907Z,101511.44
2022-10-05T01:22:47.165Z,101510.59
2022-10-05T01:26:04.815Z,101518.34
2022-10-05T01:29:24.029Z,101514.03
2022-10-05T01:32:29.384Z,101521.81
2022-10-05T01:35:50.610Z,101524.41
2022-10-05T01:39:02.268Z,101530.44
2022-10-05T01:42:13.881Z,101533.03
2022-10-05T01:45:35.219Z,101528.72
2022-10-05T01:48:57.139Z,101522.69
2022-10-05T01:52:07.643Z,101526.13
2022-10-05T01:55:16.116Z,101523.53
2022-10-05T01:58:34.930Z,101516.62
2022-10-05T02:01:43.217Z,101522.66
2022-10-05T02:05:02.670Z,101533.88
2022-10-05T02:08:08.533Z,101533.88
2022-10-05T02:11:13.218Z,101542.50
2022-10-05T02:14:19.364Z,101543.34
2022-10-05T02:17:32.632Z,101551.97
2022-10-05T02:20:38.178Z,101540.75
2022-10-05T02:23:42.950Z,101545.06
2022-10-05T02:26:45.701Z,101548.53
2022-10-05T02:29:49.195Z,101554.53
2022-10-05T02:32:55.483Z,101557.12
2022-10-05T02:36:17.767Z,101539.88
2022-10-05T02:39:36.897Z,101549.34
2022-10-05T02:42:59.935Z,101551.94
2022-10-05T02:46:09.633Z,101550.22
2022-10-05T02:49:30.981Z,101559.66
2022-10-05T02:52:33.387Z,101553.62
2022-10-05T02:55:47.939Z,101562.25
2022-10-05T02:59:08.391Z,101557.06
2022-10-05T03:02:13.917Z,101562.28
2022-10-05T03:05:36.672Z,101555.37
2022-10-05T03:08:46.568Z,101555.37
2022-10-05T03:12:02.833Z,101555.34
2022-10-05T03:15:14.979Z,101555.34
2022-10-05T03:18:36.130Z,101545.03
2022-10-05T03:21:57.855Z,101539.00
2022-10-05T03:25:15.632Z,101530.38
2022-10-05T03:28:24.685Z,101536.41
2022-10-05T03:31:42.311Z,101536.41
2022-10-05T03:34:53.534Z,101540.72
2022-10-05T03:38:11.097Z,101539.84
2022-10-05T03:41:32.888Z,101547.59
2022-10-05T03:44:41.349Z,101556.19
2022-10-05T03:47:52.363Z,101550.16
2022-10-05T03:50:54.786Z,101553.66
2022-10-05T03:54:01.275Z,101558.78
2022-10-05T03:57:23.830Z,101578.59
2022-10-05T04:00:29.236Z,101573.41
2022-10-05T04:03:41.805Z,101568.22
2022-10-05T04:06:48.026Z,101571.66
2022-10-05T04:09:52.713Z,101569.06
2022-10-05T04:13:02.331Z,101569.06
2022-10-05T04:16:07.898Z,101570.75
2022-10-05T04:19:23.298Z,101568.16
2022-10-05T04:22:35.821Z,101573.31
2022-10-05T04:25:43.626Z,101571.56
2022-10-05T04:28:52.201Z,101566.41
2022-10-05T04:32:08.832Z,101568.09
2022-10-05T04:35:30.548Z,101565.53
2022-10-05T04:38:39.475Z,101566.41
2022-10-05T04:41:42.225Z,101571.53
2022-10-05T04:44:48.132Z,101578.44
2022-10-05T04:47:57.685Z,101576.72
2022-10-05T04:51:12.417Z,101565.50
2022-10-05T04:54:35.393Z,101569.84
2022-10-05T04:57:56.206Z,101568.97
2022-10-05T05:01:02.153Z,101570.69
2022-10-05T05:04:23.459Z,101568.13
2022-10-05T05:07:44.737Z,101563.00
2022-10-05T05:11:05.907Z,101580.25
2022-10-05T05:14:34.816Z,101559.63
2022-10-05T05:17:46.092Z,101563.91
2022-10-05T05:20:57.176Z,101564.78
2022-10-05T05:24:05.335Z,101567.38
2022-10-05T05:27:26.911Z,101573.44
2022-10-05T05:30:35.724Z,101566.56
2022-10-05T05:33:56.909Z,101567.44
2022-10-05T05:37:32.165Z,101576.09
2022-10-05T05:40:40.214Z,101578.69
2022-10-05T05:44:01.356Z,101585.56
2022-10-05T05:47:09.851Z,101595.06
2022-10-05T05:50:13.290Z,101598.53
2022-10-05T05:53:19.196Z,101601.97
2022-10-05T05:56:27.346Z,101608.03
2022-10-05T05:59:42.599Z,101626.13
2022-10-05T06:02:52.834Z,101621.81
2022-10-05T06:05:58.722Z,101620.06
2022-10-05T06:09:04.306Z,101640.75
2022-10-05T06:12:12.063Z,101639.81
2022-10-05T06:15:28.455Z,101659.34
2022-10-05T06:18:32.838Z,101661.03
2022-10-05T06:21:55.500Z,101671.28
2022-10-05T06:24:58.535Z,101688.13
2022-10-05T06:28:16.182Z,101687.72
2022-10-05T06:31:42.737Z,101681.41
2022-10-05T06:34:54.320Z,101676.31
2022-10-05T06:38:05.140Z,101686.00
2022-10-05T06:41:10.669Z,101693.44
2022-10-05T06:44:21.896Z,101695.88
2022-10-05T06:47:37.204Z,101683.16
2022-10-05T06:50:45.839Z,101689.47
2022-10-05T06:53:57.867Z,101691.19
2022-10-05T06:57:03.532Z,101693.66
2022-10-05T07:00:16.114Z,101701.41
2022-10-05T07:03:21.840Z,101713.47
2022-10-05T07:06:43.528Z,101709.81
2022-10-05T07:09:58.419Z,101717.34
2022-10-05T07:13:15.040Z,101718.75
2022-10-05T07:16:26.390Z,101712.50
2022-10-05T07:19:37.675Z,101704.06
2022-10-05T07:22:46.182Z,101701.75
2022-10-05T07:25:52.944Z,101709.38
2022-10-05T07:28:56.113Z,101717.84
2022-10-05T07:32:14.491Z,101723.75
2022-10-05T07:35:35.871Z,101725.28
2022-10-05T07:38:38.162Z,101719.88
2022-10-05T07:41:47.624Z,101713.62
2022-10-05T07:44:55.364Z,101713.34
2022-10-05T07:48:00.903Z,101709.78
2022-10-05T07:51:27.174Z,101706.78
2022-10-05T07:54:32.866Z,101704.09
2022-10-05T07:57:50.043Z,101710.28
2022-10-05T08:01:00.455Z,101720.28
2022-10-05T08:04:12.560Z,101729.00
2022-10-05T08:07:17.399Z,101731.31
2022-10-05T08:10:25.890Z,101722.09
2022-10-05T08:13:34.638Z,101718.03
2022-10-05T08:16:38.350Z,101704.75
2022-10-05T08:19:46.854Z,101702.78
2022-10-05T08:22:53.544Z,101697.53
2022-10-05T08:25:55.822Z,101685.59
2022-10-05T08:29:17.172Z,101676.41
2022-10-05T08:32:38.340Z,101678.50
2022-10-05T08:35:45.520Z,101679.41
2022-10-05T08:38:47.903Z,101683.88
2022-10-05T08:42:16.619Z,101676.88
2022-10-05T08:45:30.979Z,101672.94
2022-10-05T08:48:33.742Z,101677.06
2022-10-05T08:51:37.745Z,101676.94
2022-10-05T08:54:43.618Z,101681.34
2022-10-05T08:57:46.596Z,101676.19
2022-10-05T09:00:56.020Z,101668.19
2022-10-05T09:04:10.603Z,101678.59
2022-10-05T09:07:19.115Z,101686.84
2022-10-05T09:10:21.467Z,101686.94
2022-10-05T09:13:24.031Z,101695.28
2022-10-05T09:16:45.547Z,101706.75
2022-10-05T09:19:54.188Z,101708.00
2022-10-05T09:23:14.152Z,101702.16
2022-10-05T09:26:49.264Z,101703.28
2022-10-05T09:30:00.740Z,101700.53
2022-10-05T09:33:16.293Z,101698.06
2022-10-05T09:36:53.954Z,101694.66
2022-10-05T09:40:12.439Z,101701.06
2022-10-05T09:43:20.399Z,101697.63
2022-10-05T09:46:40.793Z,101691.16
2022-10-05T09:49:51.982Z,101692.84
2022-10-05T09:53:12.748Z,101695.94
2022-10-05T09:56:15.092Z,101692.81
2022-10-05T09:59:33.015Z,101685.38
2022-10-05T10:02:38.813Z,101688.97
2022-10-05T10:05:41.531Z,101690.13
2022-10-05T10:08:47.013Z,101689.19
2022-10-05T10:11:59.808Z,101682.75
2022-10-05T10:15:13.883Z,101688.22
2022-10-05T10:18:35.406Z,101677.72
2022-10-05T10:21:56.668Z,101689.62
2022-10-05T10:24:59.213Z,101687.56
2022-10-05T10:28:31.008Z,101690.22
2022-10-05T10:31:58.077Z,101685.22
2022-10-05T10:35:00.371Z,101681.63
2022-10-05T10:38:19.907Z,101684.00
2022-10-05T10:41:27.939Z,101673.09
2022-10-05T10:44:33.282Z,101683.66
2022-10-05T10:47:40.429Z,101683.66
2022-10-05T10:50:49.103Z,101685.63
2022-10-05T10:54:12.438Z,101680.56
2022-10-05T10:57:15.445Z,101685.03
2022-10-05T11:00:22.984Z,101687.75
2022-10-05T11:03:44.552Z,101685.38
2022-10-05T11:07:16.186Z,101692.72
2022-10-05T11:10:21.620Z,101682.50
2022-10-05T11:13:26.955Z,101684.28
2022-10-05T11:16:32.594Z,101676.53
2022-10-05T11:20:02.520Z,101675.69
2022-10-05T11:23:03.400Z,101676.06
2022-10-05T11:26:11.782Z,101675.62
2022-10-05T11:29:32.950Z,101668.16
2022-10-05T11:32:50.686Z,101666.06
2022-10-05T11:35:56.252Z,101660.59
2022-10-05T11:39:04.055Z,101657.25
2022-10-05T11:42:29.611Z,101654.97
2022-10-05T11:45:40.035Z,101654.97
2022-10-05T11:48:46.948Z,101654.53
2022-10-05T11:51:52.629Z,101646.44
2022-10-05T11:55:14.872Z,101642.50
2022-10-05T11:58:25.420Z,101641.22
2022-10-05T12:01:35.981Z,101629.53
2022-10-05T12:04:41.631Z,101627.50
2022-10-05T12:07:54.593Z,101627.06
2022-10-05T12:11:09.986Z,101622.63
2022-10-05T12:14:18.698Z,101632.25
2022-10-05T12:17:33.647Z,101629.91
2022-10-05T12:20:46.230Z,101631.41
2022-10-05T12:23:58.863Z,101640.41
2022-10-05T12:27:05.104Z,101625.50
2022-10-05T12:30:18.161Z,101622.03
2022-10-05T12:33:34.030Z,101613.97
2022-10-05T12:37:05.874Z,101612.38
2022-10-05T12:40:37.880Z,101606.94
2022-10-05T12:43:46.914Z,101602.66
2022-10-05T12:47:04.673Z,101585.06
2022-10-05T12:50:15.211Z,101589.09
2022-10-05T12:53:23.633Z,101591.34
2022-10-05T12:56:29.159Z,101582.91
2022-10-05T12:59:43.533Z,101576.13
2022-10-05T13:02:47.910Z,101586.44
2022-10-05T13:06:04.071Z,101580.97
2022-10-05T13:09:18.411Z,101592.41
2022-10-05T13:12:20.765Z,101593.69
2022-10-05T13:15:35.571Z,101590.59
2022-10-05T13:18:50.741Z,101583.50
2022-10-05T13:21:59.306Z,101580.62
2022-10-05T13:25:08.016Z,101576.47
2022-10-05T13:28:16.004Z,101581.88
2022-10-05T13:31:18.269Z,101573.06
2022-10-05T13:34:36.362Z,101576.41
2022-10-05T13:37:43.285Z,101576.97
2022-10-05T13:40:45.765Z,101575.34
2022-10-05T13:44:07.058Z,101570.59
2022-10-05T13:47:21.819Z,101575.28
2022-10-05T13:50:28.466Z,101565.47
2022-10-05T13:53:45.186Z,101569.50
2022-10-05T13:56:56.515Z,101567.47
2022-10-05T14:00:03.735Z,101572.59
2022-10-05T14:03:27.433Z,101577.78
2022-10-05T14:06:30.958Z,101576.59
2022-10-05T14:09:34.930Z,101565.28
2022-10-05T14:12:40.446Z,101575.84
2022-10-05T14:15:55.289Z,101578.03
2022-10-05T14:19:09.041Z,101573.69
2022-10-05T14:22:12.975Z,101582.59
2022-10-05T14:25:19.922Z,101573.56
2022-10-05T14:28:25.350Z,101575.19
2022-10-05T14:31:29.511Z,101571.88
2022-10-05T14:34:35.668Z,101562.78
2022-10-05T14:37:47.205Z,101571.09
2022-10-05T14:41:06.194Z,101575.06
2022-10-05T14:44:08.780Z,101573.22
2022-10-05T14:47:19.918Z,101575.06
2022-10-05T14:50:29.483Z,101578.81
2022-10-05T14:53:40.394Z,101571.34
2022-10-05T14:56:50.097Z,101564.66
2022-10-05T15:00:02.207Z,101560.94
2022-10-05T15:03:20.853Z,101555.66
2022-10-05T15:06:43.578Z,101551.03
2022-10-05T15:09:55.642Z,101537.19
2022-10-05T15:13:11.474Z,101541.22
2022-10-05T15:16:19.743Z,101552.16
2022-10-05T15:19:31.825Z,101554.53
2022-10-05T15:22:48.161Z,101553.38
2022-10-05T15:25:56.613Z,101554.59
2022-10-05T15:29:04.796Z,101553.22
2022-10-05T15:32:16.491Z,101537.28
2022-10-05T15:35:28.035Z,101527.88
2022-10-05T15:38:48.896Z,101529.00
2022-10-05T15:41:55.271Z,101529.91
2022-10-05T15:44:57.501Z,101526.97
2022-10-05T15:48:05.924Z,101537.84
2022-10-05T15:51:17.630Z,101535.75
2022-10-05T15:54:54.517Z,101537.34
2022-10-05T15:58:08.423Z,101535.28
2022-10-05T16:01:12.364Z,101534.94
2022-10-05T16:04:15.324Z,101544.19
2022-10-05T16:07:39.128Z,101542.72
2022-10-05T16:10:43.952Z,101544.88
2022-10-05T16:13:53.082Z,101545.13
2022-10-05T16:17:07.875Z,101538.72
2022-10-05T16:20:15.115Z,101545.91
2022-10-05T16:23:36.481Z,101541.97
2022-10-05T16:26:38.767Z,101542.34
2022-10-05T16:29:53.297Z,101546.28
2022-10-05T16:32:55.628Z,101546.53
2022-10-05T16:36:04.874Z,101545.97
2022-10-05T16:39:11.656Z,101550.72
2022-10-05T16:42:22.776Z,101546.59
2022-10-05T16:45:29.553Z,101550.34
2022-10-05T16:48:37.724Z,101553.94
2022-10-05T16:52:00.271Z,101561.19
2022-10-05T16:55:06.733Z,101567.62
2022-10-05T16:58:16.846Z,101581.00
2022-10-05T17:01:26.268Z,101576.03
2022-10-05T17:04:31.947Z,101581.16
2022-10-05T17:07:35.051Z,101579.72
2022-10-05T17:10:41.208Z,101585.25
2022-10-05T17:13:49.527Z,101589.78
2022-10-05T17:16:57.821Z,101594.06
2022-10-05T17:20:07.379Z,101589.84
2022-10-05T17:23:31.248Z,101591.12
2022-10-05T17:26:33.991Z,101591.09
2022-10-05T17:29:47.720Z,101595.75
2022-10-05T17:32:56.308Z,101588.19
2022-10-05T17:36:04.605Z,101600.53
2022-10-05T17:39:13.294Z,101601.53
2022-10-05T17:42:35.648Z,101600.91
2022-10-05T17:45:38.206Z,101601.22
2022-10-05T17:48:42.615Z,101603.09
2022-10-05T17:52:03.821Z,101602.28
2022-10-05T17:55:35.966Z,101600.66
2022-10-05T17:58:44.866Z,101600.03
2022-10-05T18:02:07.122Z,101605.50
2022-10-05T18:05:16.216Z,101609.13
2022-10-05T18:08:26.841Z,101605.06
2022-10-05T18:11:35.286Z,101599.22
2022-10-05T18:14:55.732Z,101594.22
2022-10-05T18:18:19.318Z,101603.03
2022-10-05T18:21:32.867Z,101595.31
2022-10-05T18:25:03.745Z,101604.13
2022-10-05T18:28:12.771Z,101602.50
2022-10-05T18:31:34.238Z,101617.47
2022-10-05T18:34:43.880Z,101614.16
2022-10-05T18:37:56.241Z,101608.09
2022-10-05T18:41:09.010Z,101606.47
2022-10-05T18:44:14.505Z,101605.69
2022-10-05T18:47:29.181Z,101605.91
2022-10-05T18:50:44.995Z,101606.03
2022-10-05T18:53:47.440Z,101600.03
2022-10-05T18:56:51.291Z,101606.22
2022-10-05T18:59:59.057Z,101602.78
2022-10-05T19:03:08.253Z,101609.84
2022-10-05T19:06:24.316Z,101602.16
2022-10-05T19:09:31.484Z,101599.69
2022-10-05T19:12:41.657Z,101597.19
2022-10-05T19:16:03.378Z,101592.97
2022-10-05T19:19:30.920Z,101604.38
2022-10-05T19:22:42.295Z,101604.47
2022-10-05T19:25:51.923Z,101610.59
2022-10-05T19:29:01.409Z,101610.69
2022-10-05T19:32:18.683Z,101608.19
2022-10-05T19:35:33.081Z,101610.88
2022-10-05T19:38:41.455Z,101616.16
2022-10-05T19:41:50.665Z,101619.66
2022-10-05T19:45:09.197Z,101619.69
2022-10-05T19:48:21.104Z,101614.47
2022-10-05T19:51:31.506Z,101615.47
2022-10-05T19:54:34.977Z,101619.81
2022-10-05T19:57:45.290Z,101622.41
2022-10-05T20:00:53.873Z,101629.44
2022-10-05T20:03:57.986Z,101633.78
2022-10-05T20:07:01.939Z,101630.41
2022-10-05T20:10:19.921Z,101630.34
2022-10-05T20:13:22.806Z,101637.47
2022-10-05T20:19:52.219Z,101642.72
2022-10-05T20:23:14.736Z,101643.59
2022-10-05T20:26:55.057Z,101643.63
2022-10-05T20:29:58.070Z,101653.22
2022-10-05T20:33:01.616Z,101651.59
2022-10-05T20:36:04.308Z,101655.06
2022-10-05T20:39:06.619Z,101649.06
2022-10-05T20:42:09.542Z,101659.50
2022-10-05T20:45:12.526Z,101650.00
2022-10-05T20:48:16.634Z,101663.09
2022-10-05T20:51:19.314Z,101656.19
2022-10-05T20:54:22.602Z,101650.16
2022-10-05T20:57:25.178Z,101656.28
2022-10-05T21:00:47.937Z,101658.97
2022-10-05T21:03:53.275Z,101657.22
2022-10-05T21:06:55.828Z,101661.59
2022-10-05T21:09:58.074Z,101657.37
2022-10-05T21:13:02.771Z,101653.97
2022-10-05T21:16:07.700Z,101659.22
2022-10-05T21:19:12.300Z,101654.03
2022-10-05T21:22:14.697Z,101651.53
2022-10-05T21:25:17.412Z,101648.19
2022-10-05T21:28:19.886Z,101650.00
2022-10-05T21:31:22.720Z,101655.22
2022-10-05T21:34:24.973Z,101648.38
2022-10-05T21:37:27.641Z,101651.00
2022-10-05T21:40:29.858Z,101650.22
2022-10-05T21:43:32.453Z,101645.91
2022-10-05T21:46:35.921Z,101649.41
2022-10-05T21:49:38.556Z,101646.87
2022-10-05T21:52:40.983Z,101649.50
2022-10-05T21:55:45.299Z,101648.69
2022-10-05T21:58:48.067Z,101647.88
2022-10-05T22:01:50.679Z,101645.31
2022-10-05T22:04:53.318Z,101644.47
2022-10-05T22:07:55.539Z,101638.41
2022-10-05T22:11:08.621Z,101637.59
2022-10-05T22:14:14.229Z,101644.53
2022-10-05T22:17:20.653Z,101630.63
2022-10-05T22:20:24.553Z,101642.75
2022-10-05T22:23:27.075Z,101641.84
2022-10-05T22:26:29.636Z,101628.91
2022-10-05T22:29:32.243Z,101631.53
2022-10-05T22:32:34.436Z,101641.03
2022-10-05T22:35:37.161Z,101635.84
2022-10-05T22:38:40.359Z,101630.69
2022-10-05T22:41:42.974Z,101634.16
2022-10-05T22:44:45.284Z,101630.69
2022-10-05T22:47:48.302Z,101628.97
2022-10-05T22:50:51.868Z,101628.16
2022-10-05T22:53:54.458Z,101621.25
2022-10-05T22:56:56.776Z,101615.19
2022-10-05T22:59:59.356Z,101615.16
2022-10-05T23:03:01.612Z,101613.44
2022-10-05T23:06:09.047Z,101605.56
2022-10-05T23:09:11.618Z,101602.00
2022-10-05T23:12:14.389Z,101605.50
2022-10-05T23:15:16.706Z,101609.81
2022-10-05T23:18:19.259Z,101605.53
2022-10-05T23:21:22.638Z,101591.56
2022-10-05T23:24:25.176Z,101592.41
2022-10-05T23:27:27.406Z,101594.97
2022-10-05T23:30:30.048Z,101595.84
2022-10-05T23:33:32.796Z,101592.41
2022-10-05T23:36:35.970Z,101591.56
2022-10-05T23:39:38.242Z,101591.56
2022-10-05T23:42:41.142Z,101588.97
2022-10-05T23:45:47.102Z,101595.97
2022-10-05T23:48:50.403Z,101596.84
2022-10-05T23:51:52.711Z,101589.03
2022-10-05T23:54:55.253Z,101583.84
2022-10-05T23:57:57.534Z,101587.25
